Rovinj, Croatia
Current Conditions -  °F | °C
As of 9:00 AM on Monday 20 Oct 2014 (Local Time) from LDPL Reporting Station
Scattered Clouds Scattered Clouds  
Wind Chill: 66°   Ceiling: Unl
Heat Index: 66°   Visibility: 6mi
Dew Point: 63°   Wind: 3mph
Humidity: 88%   Direction: NA
Pressure: 30.21"   Gusts: NA
Location:  45.09°N, 13.64°E
Report Text: LDPL 200800Z VRB03KT 9999 FEW016 SCT020 19/17 Q1023 NOSIG
Loading
Personal Weather Stations






























Interactive Weather Map
Tropical Storm Tracking
New forecast layout! Learn more

10-Day Weather Forecast

Advertisements
Track Severe Weather on mobile